createdAt,value
2023-05-13T00:01:10.358Z,9.35
2023-05-13T00:03:38.164Z,6.65
2023-05-13T00:06:05.222Z,7.80
2023-05-13T00:08:32.278Z,11.48
2023-05-13T00:10:59.160Z,12.07
2023-05-13T00:13:26.775Z,7.85
2023-05-13T00:15:53.737Z,9.95
2023-05-13T00:18:20.737Z,10.93
2023-05-13T00:20:47.632Z,7.65
2023-05-13T00:23:14.661Z,9.52
2023-05-13T00:25:42.134Z,7.47
2023-05-13T00:28:09.066Z,9.25
2023-05-13T00:30:35.877Z,13.85
2023-05-13T00:33:03.001Z,9.10
2023-05-13T00:35:29.888Z,9.40
2023-05-13T00:37:56.919Z,7.38
2023-05-13T00:40:25.311Z,10.77
2023-05-13T00:42:52.488Z,7.57
2023-05-13T00:45:19.430Z,12.85
2023-05-13T00:47:47.531Z,14.88
2023-05-13T00:50:15.172Z,9.20
2023-05-13T00:52:43.039Z,9.60
2023-05-13T00:55:10.988Z,9.00
2023-05-13T00:57:40.079Z,17.48
2023-05-13T01:00:07.968Z,7.10
2023-05-13T01:02:50.002Z,7.75
2023-05-13T01:05:52.085Z,10.68
2023-05-13T01:08:36.402Z,9.13
2023-05-13T01:11:20.417Z,15.80
2023-05-13T01:13:49.656Z,10.25
2023-05-13T01:16:24.941Z,7.93
2023-05-13T01:18:58.691Z,11.35
2023-05-13T01:21:26.894Z,10.85
2023-05-13T01:23:53.984Z,10.05
2023-05-13T01:26:23.325Z,9.52
2023-05-13T01:28:50.672Z,9.35
2023-05-13T01:31:19.102Z,10.75
2023-05-13T01:33:46.908Z,14.68
2023-05-13T01:36:16.023Z,7.60
2023-05-13T01:38:44.261Z,11.75
2023-05-13T01:41:11.215Z,8.65
2023-05-13T01:43:38.093Z,11.32
2023-05-13T01:46:12.291Z,8.68
2023-05-13T01:48:39.126Z,9.65
2023-05-13T01:51:06.693Z,8.18
2023-05-13T01:53:33.643Z,10.48
2023-05-13T01:56:00.446Z,11.38
2023-05-13T01:58:27.248Z,11.60
2023-05-13T02:00:54.054Z,9.88
2023-05-13T02:03:21.030Z,8.35
2023-05-13T02:05:48.864Z,13.13
2023-05-13T02:08:15.769Z,11.20
2023-05-13T02:10:42.579Z,10.77
2023-05-13T02:13:09.722Z,10.65
2023-05-13T02:15:36.724Z,13.93
2023-05-13T02:18:03.747Z,9.00
2023-05-13T02:20:30.654Z,9.65
2023-05-13T02:22:57.446Z,13.48
2023-05-13T02:25:24.319Z,9.30
2023-05-13T02:27:51.353Z,11.43
2023-05-13T02:30:18.595Z,13.35
2023-05-13T02:32:45.517Z,10.68
2023-05-13T02:35:12.418Z,9.00
2023-05-13T02:37:39.409Z,16.48
2023-05-13T02:40:06.848Z,8.07
2023-05-13T02:42:33.674Z,8.75
2023-05-13T02:45:00.585Z,10.02
2023-05-13T02:47:27.448Z,11.70
2023-05-13T02:49:56.541Z,9.20
2023-05-13T02:52:23.694Z,11.68
2023-05-13T02:54:50.715Z,11.40
2023-05-13T02:57:17.565Z,12.73
2023-05-13T02:59:44.395Z,15.55
2023-05-13T03:02:11.260Z,11.80
2023-05-13T03:04:38.207Z,17.15
2023-05-13T03:07:05.113Z,12.50
2023-05-13T03:09:31.922Z,12.35
2023-05-13T03:11:58.807Z,11.32
2023-05-13T03:14:25.811Z,11.35
2023-05-13T03:16:52.584Z,9.98
2023-05-13T03:19:19.513Z,9.75
2023-05-13T03:21:46.408Z,12.32
2023-05-13T03:24:13.266Z,11.77
2023-05-13T03:26:40.269Z,10.55
2023-05-13T03:29:07.156Z,9.77
2023-05-13T03:31:34.092Z,10.02
2023-05-13T03:34:01.047Z,15.23
2023-05-13T03:36:28.011Z,9.75
2023-05-13T03:38:54.829Z,15.02
2023-05-13T03:41:21.731Z,10.30
2023-05-13T03:43:48.560Z,12.00
2023-05-13T03:46:15.374Z,16.40
2023-05-13T03:48:42.216Z,15.43
2023-05-13T03:51:09.019Z,9.55
2023-05-13T03:53:35.930Z,11.20
2023-05-13T03:56:02.789Z,13.77
2023-05-13T03:58:29.698Z,13.02
2023-05-13T04:00:56.691Z,13.35
2023-05-13T04:03:23.540Z,18.13
2023-05-13T04:05:51.830Z,12.40
2023-05-13T04:08:19.183Z,11.55
2023-05-13T04:10:46.014Z,15.13
2023-05-13T04:13:12.854Z,12.63
2023-05-13T04:15:39.702Z,16.73
2023-05-13T04:18:06.875Z,9.82
2023-05-13T04:20:33.900Z,16.20
2023-05-13T04:23:01.680Z,15.13
2023-05-13T04:25:28.649Z,10.55
2023-05-13T04:27:55.441Z,13.50
2023-05-13T04:30:22.521Z,12.43
2023-05-13T04:32:49.741Z,10.48
2023-05-13T04:35:16.652Z,16.33
2023-05-13T04:37:43.593Z,11.95
2023-05-13T04:40:11.006Z,18.30
2023-05-13T04:42:37.775Z,18.48
2023-05-13T04:45:05.027Z,12.70
2023-05-13T04:47:35.119Z,13.10
2023-05-13T04:50:02.591Z,14.10
2023-05-13T04:52:29.928Z,16.95
2023-05-13T04:54:56.822Z,21.33
2023-05-13T04:57:23.646Z,15.68
2023-05-13T04:59:50.538Z,14.95
2023-05-13T05:02:17.327Z,19.45
2023-05-13T05:04:44.883Z,15.73
2023-05-13T05:07:11.722Z,20.33
2023-05-13T05:09:38.557Z,19.85
2023-05-13T05:12:06.479Z,17.95
2023-05-13T05:14:33.485Z,20.67
2023-05-13T05:17:00.539Z,25.50
2023-05-13T05:19:27.529Z,20.67
2023-05-13T05:21:54.529Z,21.70
2023-05-13T05:24:21.373Z,19.77
2023-05-13T05:26:48.295Z,22.33
2023-05-13T05:29:15.254Z,23.17
2023-05-13T05:31:42.230Z,21.55
2023-05-13T05:34:09.405Z,25.52
2023-05-13T05:36:38.107Z,20.45
2023-05-13T05:39:05.305Z,20.83
2023-05-13T05:41:36.050Z,21.40
2023-05-13T05:44:02.973Z,23.05
2023-05-13T05:46:29.806Z,21.45
2023-05-13T05:48:56.638Z,19.30
2023-05-13T05:51:23.503Z,21.27
2023-05-13T05:53:50.289Z,21.15
2023-05-13T05:56:17.247Z,17.17
2023-05-13T05:58:44.038Z,21.83
2023-05-13T06:01:10.949Z,16.40
2023-05-13T06:03:37.992Z,26.02
2023-05-13T06:06:05.372Z,20.13
2023-05-13T06:08:32.436Z,22.38
2023-05-13T06:10:59.546Z,17.55
2023-05-13T06:13:26.475Z,23.42
2023-05-13T06:15:53.348Z,19.58
2023-05-13T06:18:20.315Z,23.63
2023-05-13T06:20:47.162Z,16.05
2023-05-13T06:23:15.032Z,22.00
2023-05-13T06:25:42.198Z,19.70
2023-05-13T06:28:12.073Z,24.10
2023-05-13T06:30:39.048Z,17.80
2023-05-13T06:33:06.125Z,16.70
2023-05-13T06:35:33.026Z,14.13
2023-05-13T06:37:59.949Z,16.77
2023-05-13T06:40:26.943Z,25.80
2023-05-13T06:42:53.923Z,12.38
2023-05-13T06:45:23.369Z,16.08
2023-05-13T06:47:53.793Z,11.70
2023-05-13T06:50:21.063Z,12.90
2023-05-13T06:52:50.412Z,14.23
2023-05-13T06:55:18.987Z,12.32
2023-05-13T06:57:47.331Z,12.82
2023-05-13T07:00:15.716Z,14.00
2023-05-13T07:02:42.966Z,17.88
2023-05-13T07:05:11.509Z,15.60
2023-05-13T07:07:38.775Z,10.98
2023-05-13T07:10:06.038Z,14.90
2023-05-13T07:12:33.483Z,11.57
2023-05-13T07:15:00.830Z,14.90
2023-05-13T07:17:27.761Z,12.02
2023-05-13T07:19:54.832Z,14.52
2023-05-13T07:22:21.675Z,15.45
2023-05-13T07:24:48.497Z,10.05
2023-05-13T07:27:15.490Z,11.50
2023-05-13T07:29:42.345Z,11.15
2023-05-13T07:32:09.299Z,12.35
2023-05-13T07:34:36.361Z,13.10
2023-05-13T07:37:04.511Z,9.45
2023-05-13T07:39:31.350Z,11.00
2023-05-13T07:41:58.670Z,12.13
2023-05-13T07:44:26.039Z,7.75
2023-05-13T07:46:53.633Z,12.75
2023-05-13T07:49:23.921Z,10.90
2023-05-13T07:51:50.966Z,13.30
2023-05-13T07:54:18.380Z,12.90
2023-05-13T07:56:46.622Z,9.13
2023-05-13T07:59:13.426Z,9.10
2023-05-13T08:01:40.393Z,8.20
2023-05-13T08:04:07.709Z,11.05
2023-05-13T08:06:34.803Z,18.13
2023-05-13T08:09:02.069Z,9.02
2023-05-13T08:11:29.239Z,11.40
2023-05-13T08:13:57.566Z,11.35
2023-05-13T08:16:24.435Z,10.00
2023-05-13T08:18:51.629Z,13.13
2023-05-13T08:21:18.460Z,8.75
2023-05-13T08:23:46.114Z,11.50
2023-05-13T08:26:13.813Z,10.35
2023-05-13T08:28:41.914Z,8.05
2023-05-13T08:31:11.516Z,10.05
2023-05-13T08:33:38.474Z,11.82
2023-05-13T08:36:05.751Z,9.45
2023-05-13T08:38:33.594Z,10.10
2023-05-13T08:41:03.589Z,13.90
2023-05-13T08:43:33.005Z,11.52
2023-05-13T08:46:04.146Z,11.02
2023-05-13T08:48:32.168Z,10.57
2023-05-13T08:51:01.079Z,9.52
2023-05-13T08:53:28.599Z,11.77
2023-05-13T08:55:56.306Z,9.23
2023-05-13T08:58:23.407Z,7.65
2023-05-13T09:00:51.920Z,9.45
2023-05-13T09:03:20.114Z,16.70
2023-05-13T09:05:47.275Z,14.10
2023-05-13T09:08:15.395Z,8.75
2023-05-13T09:10:42.864Z,8.73
2023-05-13T09:13:12.491Z,7.40
2023-05-13T09:15:46.180Z,10.07
2023-05-13T09:18:19.410Z,8.35
2023-05-13T09:20:46.882Z,8.45
2023-05-13T09:23:15.827Z,12.93
2023-05-13T09:25:44.288Z,7.63
2023-05-13T09:28:14.862Z,9.30
2023-05-13T09:30:45.631Z,12.10
2023-05-13T09:33:20.123Z,9.97
2023-05-13T09:35:53.504Z,7.68
2023-05-13T09:38:28.890Z,5.78
2023-05-13T09:41:00.439Z,15.10
2023-05-13T09:43:38.893Z,11.05
2023-05-13T09:46:06.055Z,7.60
2023-05-13T09:48:34.209Z,10.15
2023-05-13T09:51:01.197Z,8.70
2023-05-13T09:53:28.612Z,8.15
2023-05-13T09:55:57.026Z,7.85
2023-05-13T09:58:25.394Z,7.72
2023-05-13T10:00:52.853Z,6.15
2023-05-13T10:03:19.786Z,10.65
2023-05-13T10:05:48.859Z,11.15
2023-05-13T10:08:17.257Z,10.05
2023-05-13T10:10:46.974Z,6.25
2023-05-13T10:13:15.853Z,11.35
2023-05-13T10:15:53.822Z,9.23
2023-05-13T10:18:22.442Z,9.40
2023-05-13T10:20:55.696Z,6.28
2023-05-13T10:23:24.325Z,9.32
2023-05-13T10:25:53.214Z,7.45
2023-05-13T10:28:20.684Z,13.00
2023-05-13T10:30:53.659Z,9.63
2023-05-13T10:33:21.224Z,5.15
2023-05-13T10:36:04.165Z,4.82
2023-05-13T10:38:48.241Z,4.47
2023-05-13T10:42:00.065Z,6.03
2023-05-13T10:44:27.769Z,5.80
2023-05-13T10:46:56.724Z,4.57
2023-05-13T10:49:25.557Z,5.05
2023-05-13T10:51:52.582Z,7.45
2023-05-13T10:54:21.523Z,9.35
2023-05-13T10:56:59.013Z,11.55
2023-05-13T10:59:30.272Z,7.43
2023-05-13T11:01:57.400Z,5.03
2023-05-13T11:04:24.311Z,8.82
2023-05-13T11:06:52.034Z,6.30
2023-05-13T11:09:21.967Z,6.80
2023-05-13T11:11:59.965Z,7.60
2023-05-13T11:14:27.978Z,11.38
2023-05-13T11:17:01.130Z,6.25
2023-05-13T11:19:32.476Z,4.85
2023-05-13T11:22:12.260Z,7.85
2023-05-13T11:24:39.861Z,5.35
2023-05-13T11:27:20.713Z,7.55
2023-05-13T11:29:55.835Z,15.30
2023-05-13T11:32:51.291Z,7.47
2023-05-13T11:35:29.825Z,4.72
2023-05-13T11:38:00.118Z,12.63
2023-05-13T11:40:39.562Z,6.45
2023-05-13T11:43:07.856Z,5.10
2023-05-13T11:45:39.165Z,4.85
2023-05-13T11:48:23.543Z,4.00
2023-05-13T11:50:51.895Z,5.97
2023-05-13T11:53:22.581Z,4.85
2023-05-13T11:55:49.954Z,5.70
2023-05-13T11:58:16.934Z,4.82
2023-05-13T12:00:45.906Z,5.18
2023-05-13T12:03:16.007Z,4.05
2023-05-13T12:05:44.671Z,4.70
2023-05-13T12:08:11.789Z,5.07
2023-05-13T12:10:45.638Z,8.90
2023-05-13T12:13:13.004Z,4.35
2023-05-13T12:15:41.304Z,15.43
2023-05-13T12:18:08.258Z,10.38
2023-05-13T12:20:35.541Z,5.43
2023-05-13T12:23:02.803Z,7.93
2023-05-13T12:25:37.129Z,5.53
2023-05-13T12:28:09.158Z,2.53
2023-05-13T12:31:00.060Z,3.67
2023-05-13T12:33:40.939Z,3.55
2023-05-13T12:36:27.843Z,4.97
2023-05-13T12:39:03.992Z,4.65
2023-05-13T12:41:31.861Z,3.67
2023-05-13T12:44:18.984Z,3.00
2023-05-13T12:46:52.506Z,3.05
2023-05-13T12:49:19.687Z,5.70
2023-05-13T12:51:46.552Z,6.88
2023-05-13T12:54:13.495Z,4.32
2023-05-13T12:56:40.695Z,5.75
2023-05-13T12:59:08.892Z,6.88
2023-05-13T13:01:36.785Z,5.68
2023-05-13T13:04:03.842Z,6.25
2023-05-13T13:06:32.327Z,4.28
2023-05-13T13:08:59.419Z,5.72
2023-05-13T13:11:26.813Z,8.75
2023-05-13T13:13:53.680Z,5.70
2023-05-13T13:16:20.677Z,4.18
2023-05-13T13:18:47.714Z,6.22
2023-05-13T13:21:14.704Z,4.47
2023-05-13T13:23:41.704Z,2.80
2023-05-13T13:26:08.611Z,5.93
2023-05-13T13:28:35.534Z,5.90
2023-05-13T13:31:02.438Z,18.50
2023-05-13T13:33:29.334Z,4.25
2023-05-13T13:35:56.181Z,4.95
2023-05-13T13:38:23.066Z,3.47
2023-05-13T13:40:50.326Z,2.10
2023-05-13T13:43:17.125Z,4.10
2023-05-13T13:45:44.397Z,3.30
2023-05-13T13:48:11.325Z,4.65
2023-05-13T13:50:38.239Z,3.17
2023-05-13T13:53:05.098Z,2.10
2023-05-13T13:55:31.944Z,7.10
2023-05-13T13:57:58.797Z,5.47
2023-05-13T14:00:25.666Z,5.18
2023-05-13T14:02:52.776Z,3.83
2023-05-13T14:05:19.846Z,3.80
2023-05-13T14:07:48.386Z,4.78
2023-05-13T14:10:15.356Z,6.32
2023-05-13T14:12:42.404Z,7.45
2023-05-13T14:15:09.570Z,5.78
2023-05-13T14:17:36.565Z,2.28
2023-05-13T14:20:03.974Z,4.53
2023-05-13T14:22:30.806Z,23.73
2023-05-13T14:24:58.897Z,8.18
2023-05-13T14:27:25.987Z,6.65
2023-05-13T14:29:52.876Z,6.70
2023-05-13T14:32:19.774Z,8.07
2023-05-13T14:34:46.565Z,5.75
2023-05-13T14:37:13.588Z,5.40
2023-05-13T14:39:40.642Z,3.20
2023-05-13T14:42:07.658Z,4.10
2023-05-13T14:44:34.593Z,4.43
2023-05-13T14:47:01.676Z,4.10
2023-05-13T14:49:28.573Z,10.48
2023-05-13T14:51:55.672Z,4.60
2023-05-13T14:54:22.566Z,2.15
2023-05-13T14:56:50.749Z,2.90
2023-05-13T14:59:17.750Z,11.50
2023-05-13T15:01:44.969Z,6.85
2023-05-13T15:04:11.816Z,4.82
2023-05-13T15:06:39.012Z,9.73
2023-05-13T15:09:07.150Z,5.78
2023-05-13T15:11:33.981Z,1.98
2023-05-13T15:14:01.839Z,3.83
2023-05-13T15:16:28.730Z,5.85
2023-05-13T15:18:55.809Z,4.57
2023-05-13T15:21:22.870Z,2.75
2023-05-13T15:23:49.836Z,3.28
2023-05-13T15:26:16.691Z,9.93
2023-05-13T15:28:43.541Z,4.97
2023-05-13T15:31:10.651Z,7.10
2023-05-13T15:33:37.704Z,4.07
2023-05-13T15:36:05.743Z,6.20
2023-05-13T15:38:32.597Z,5.70
2023-05-13T15:40:59.914Z,4.57
2023-05-13T15:43:27.107Z,9.77
2023-05-13T15:45:54.975Z,4.68
2023-05-13T15:48:21.863Z,3.40
2023-05-13T15:50:48.788Z,3.42
2023-05-13T15:53:15.738Z,5.55
2023-05-13T15:55:42.940Z,5.25
2023-05-13T15:58:09.767Z,6.03
2023-05-13T16:00:36.569Z,6.65
2023-05-13T16:03:03.663Z,2.85
2023-05-13T16:05:30.764Z,5.13
2023-05-13T16:07:57.659Z,4.63
2023-05-13T16:10:24.702Z,3.67
2023-05-13T16:12:51.972Z,6.93
2023-05-13T16:15:18.924Z,11.52
2023-05-13T16:17:45.821Z,5.50
2023-05-13T16:20:13.409Z,11.35
2023-05-13T16:22:40.726Z,4.22
2023-05-13T16:25:09.050Z,8.40
2023-05-13T16:27:36.760Z,5.15
2023-05-13T16:30:06.514Z,7.38
2023-05-13T16:32:34.989Z,3.17
2023-05-13T16:35:03.300Z,12.27
2023-05-13T16:37:31.189Z,5.60
2023-05-13T16:39:58.155Z,8.02
2023-05-13T16:42:25.916Z,7.30
2023-05-13T16:44:52.720Z,6.60
2023-05-13T16:47:19.583Z,5.10
2023-05-13T16:49:48.401Z,5.15
2023-05-13T16:52:15.470Z,6.40
2023-05-13T16:54:42.264Z,10.45
2023-05-13T16:57:09.552Z,8.73
2023-05-13T16:59:36.430Z,7.18
2023-05-13T17:02:03.318Z,8.57
2023-05-13T17:04:30.158Z,4.50
2023-05-13T17:06:59.168Z,8.60
2023-05-13T17:09:26.444Z,6.25
2023-05-13T17:11:56.834Z,6.95
2023-05-13T17:14:23.852Z,5.93
2023-05-13T17:16:50.989Z,6.18
2023-05-13T17:19:17.955Z,3.67
2023-05-13T17:21:44.902Z,13.60
2023-05-13T17:24:11.866Z,8.27
2023-05-13T17:26:39.221Z,16.05
2023-05-13T17:29:06.276Z,5.53
2023-05-13T17:31:33.751Z,9.18
2023-05-13T17:34:08.231Z,6.93
2023-05-13T17:36:35.582Z,5.85
2023-05-13T17:39:02.447Z,4.95
2023-05-13T17:41:29.405Z,10.95
2023-05-13T17:43:56.276Z,7.38
2023-05-13T17:46:23.153Z,7.72
2023-05-13T17:48:50.075Z,8.25
2023-05-13T17:51:17.071Z,3.53
2023-05-13T17:53:43.920Z,5.35
2023-05-13T17:56:10.805Z,8.13
2023-05-13T17:58:37.750Z,4.47
2023-05-13T18:01:04.660Z,6.80
2023-05-13T18:03:35.255Z,4.68
2023-05-13T18:06:02.281Z,2.90
2023-05-13T18:08:29.540Z,3.00
2023-05-13T18:10:56.386Z,6.90
2023-05-13T18:13:23.262Z,5.30
2023-05-13T18:15:50.544Z,4.20
2023-05-13T18:18:18.529Z,6.03
2023-05-13T18:20:45.431Z,7.78
2023-05-13T18:23:12.282Z,8.95
2023-05-13T18:25:52.069Z,5.85
2023-05-13T18:28:22.324Z,13.60
2023-05-13T18:30:49.245Z,3.25
2023-05-13T18:33:16.162Z,5.35
2023-05-13T18:35:43.240Z,5.50
2023-05-13T18:38:10.145Z,8.93
2023-05-13T18:40:37.036Z,8.20
2023-05-13T18:43:03.878Z,9.02
2023-05-13T18:45:30.858Z,4.82
2023-05-13T18:47:57.760Z,10.82
2023-05-13T18:50:25.198Z,4.25
2023-05-13T18:52:52.137Z,8.30
2023-05-13T18:55:19.069Z,7.50
2023-05-13T18:57:46.486Z,4.95
2023-05-13T19:00:13.774Z,7.65
2023-05-13T19:02:40.828Z,7.40
2023-05-13T19:05:08.380Z,6.32
2023-05-13T19:07:35.287Z,6.40
2023-05-13T19:10:03.593Z,8.68
2023-05-13T19:12:30.500Z,7.60
2023-05-13T19:14:57.332Z,5.88
2023-05-13T19:17:24.259Z,8.13
2023-05-13T19:19:51.114Z,8.88
2023-05-13T19:22:18.016Z,5.85
2023-05-13T19:24:44.894Z,6.28
2023-05-13T19:27:12.171Z,7.20
2023-05-13T19:29:39.035Z,6.55
2023-05-13T19:32:06.280Z,8.88
2023-05-13T19:34:33.125Z,12.93
2023-05-13T19:37:00.138Z,12.50
2023-05-13T19:39:27.057Z,10.93
2023-05-13T19:41:54.190Z,8.68
2023-05-13T19:44:21.300Z,16.73
2023-05-13T19:46:57.008Z,8.02
2023-05-13T19:49:24.528Z,9.77
2023-05-13T19:51:52.477Z,13.10
2023-05-13T19:54:19.685Z,16.42
2023-05-13T19:56:46.581Z,10.93
2023-05-13T19:59:13.451Z,11.90
2023-05-13T20:01:40.432Z,17.90
2023-05-13T20:04:07.366Z,12.98
2023-05-13T20:06:34.261Z,16.30
2023-05-13T20:09:01.974Z,12.57
2023-05-13T20:11:28.934Z,16.40
2023-05-13T20:13:56.060Z,12.15
2023-05-13T20:16:23.534Z,14.73
2023-05-13T20:18:50.707Z,10.50
2023-05-13T20:21:17.913Z,18.83
2023-05-13T20:23:44.751Z,17.83
2023-05-13T20:26:11.675Z,12.38
2023-05-13T20:28:38.560Z,10.10
2023-05-13T20:31:05.381Z,14.73
2023-05-13T20:33:32.523Z,12.00
2023-05-13T20:36:01.605Z,11.38
2023-05-13T20:38:28.484Z,18.70
2023-05-13T20:40:55.919Z,10.65
2023-05-13T20:43:25.541Z,9.82
2023-05-13T20:45:52.427Z,12.40
2023-05-13T20:48:19.294Z,8.32
2023-05-13T20:50:46.238Z,11.25
2023-05-13T20:53:13.079Z,11.77
2023-05-13T20:55:39.904Z,14.45
2023-05-13T20:58:06.744Z,14.80
2023-05-13T21:00:33.648Z,11.60
2023-05-13T21:03:00.924Z,11.75
2023-05-13T21:05:27.972Z,11.75
2023-05-13T21:07:54.898Z,12.20
2023-05-13T21:10:22.077Z,9.95
2023-05-13T21:12:49.105Z,8.85
2023-05-13T21:15:16.592Z,14.25
2023-05-13T21:17:43.601Z,12.57
2023-05-13T21:20:11.377Z,15.05
2023-05-13T21:22:38.314Z,12.52
2023-05-13T21:25:05.768Z,23.52
2023-05-13T21:27:32.661Z,23.23
2023-05-13T21:29:59.483Z,23.73
2023-05-13T21:32:26.367Z,16.27
2023-05-13T21:34:54.878Z,12.32
2023-05-13T21:37:21.843Z,17.00
